The University of Tennessee Institute of Agriculture
Tmail  /  Online@UT  /  A-Z Index

Biosystems Engineering & Soil Science


West Tennessee, Cotton farm, Haywood County, daily data

Show metric units       Show half-hour records
Date Solar rad
mJ/m2
Precip
(in)
Air temp
(deg F)
Max Min Avg
Rel humid (%)
Max Min Avg
Avg
windspeed
(mi/hr)
Soil temp
6" (deg F)
Max Min Avg
Soil temp
12" (deg F)
Max Min Avg
Evap.
trans.
(in)
1/1/18 10.7 019  7  1374  37  57643  43  4332  32  32--
1/2/18 9.9 021  5  1270  37  54343  41  4232  32  32--
1/3/18 10.2 034  16  2371  27  52441  41  4132  32  32--
1/4/18Incomplete records (40) were available today.
1/5/18Incomplete records (27) were available today.
1/6/18Incomplete records (21) were available today.
1/7/18 4.1 0.0345  21  3468  33  47539  39  3932  32  32--
1/8/18 2.4 0.5545  37  40100  70  94339  39  3932  32  32--
1/9/18 2.6 0.0448  39  43100  95  99239  39  3932  32  32--
1/10/18 2.4 059  46  54100  89  96341  39  4032  32  320.02
1/11/18 2.2 0.3863  57  6199  86  93345  41  4232  32  320.03
1/12/18 3.2 0.4855  18  2797  92  94246  45  4532  32  32--
1/13/18 11.2 0.0123  18  2093  62  79045  45  4532  32  32--
1/14/18 9.2 0.0827  12  2086  47  70145  43  4332  32  32--
1/15/18 9.7 0.4037  21  2994  55  72443  43  4332  32  32--
1/16/18 10.3 027  5  1294  54  80543  41  4332  32  32--
1/17/18 10.2 018  1  989  59  76241  41  4132  32  32--
1/18/18 12.0 0.1736  7  2091  38  67241  41  4132  32  32--
1/19/18 9.8 045  23  3365  32  49441  41  4132  32  32--
1/20/18 4.7 059  41  4984  37  52341  41  4132  32  32--
1/21/18 8.3 070  54  5983  60  72443  41  4132  32  320.06
1/22/18 10.5 0.5664  48  5898  27  58645  43  4332  32  320.08
1/23/18 5.0 048  34  4182  47  62645  45  4532  32  32--
1/24/18 12.4 048  27  3696  47  75345  45  4532  32  32--
1/25/18 12.5 063  34  4581  24  53345  45  4532  32  32--
1/26/18 11.6 063  34  4873  25  48445  45  4532  32  32--
1/27/18 1.0 0.8554  52  53100  56  83345  45  4532  32  320.02
1/28/18 12.7 057  43  49100  32  69046  45  4632  32  32--
1/29/18 7.5 041  30  3779  55  66246  46  4632  32  32--
1/30/18 12.1 039  23  3185  35  62246  45  4532  32  32--
1/31/18 13.1 063  30  4564  27  43545  45  4532  32  32--
2/1/18 1.5 0.0650  30  4598  51  71245  45  4532  32  32--
2/2/18 13.5 034  21  2667  29  47445  45  4532  32  32--
2/3/18 9.0 0.1252  27  3881  19  43345  43  4332  32  32--
2/4/18 11.1 0.8052  28  4299  62  85543  43  4332  32  32--
2/5/18 13.8 043  21  3184  43  62445  43  4432  32  32--
2/6/18 3.1 0.3141  34  3797  53  72343  43  4332  32  32--
2/7/18 5.7 0.6236  28  3298  73  87443  43  4332  32  32--
2/8/18 14.2 048  23  3397  43  74143  43  4332  32  32--
2/9/18 11.3 0.0664  32  4781  30  55343  43  4332  32  32--
2/10/18 1.7 2.4154  41  48100  92  99345  43  4332  32  32--
2/11/18 2.9 0.0841  30  35100  83  94445  45  4532  32  32--
2/12/18 13.9 043  27  3384  56  72245  45  4532  32  32--
2/13/18 10.5 054  30  4284  59  75245  43  4432  32  32--
2/14/18 2.8 0.4263  50  5799  87  97445  43  4432  32  320.03
2/15/18 8.1 073  63  6898  60  80748  45  4632  32  320.07
2/16/18 2.2 0.0570  41  5393  71  80650  48  4932  32  320.02
2/17/18 2.3 0.9148  39  4299  77  90450  50  5032  32  32--
2/18/18 12.8 059  30  46100  41  78350  48  4832  32  32--
2/19/18 11.6 077  54  6494  50  78548  48  4832  32  320.09
2/20/18 12.3 077  66  7177  54  68652  48  5032  32  320.10
2/21/18 2.2 1.9272  43  5399  69  91654  52  5232  32  320.02
2/22/18 4.2 1.0754  43  48100  88  97354  52  5232  32  32--
2/23/18 6.9 0.1870  54  60100  78  95452  52  5232  32  320.06
2/24/18 2.8 1.1572  55  64100  78  93454  52  5232  32  320.03
2/25/18 6.8 0.1255  46  5094  53  73354  54  5432  32  32--
2/26/18 17.3 064  41  5192  35  65254  54  5432  32  320.10
2/27/18 15.7 070  43  5577  26  51354  52  5332  32  320.10
2/28/18 2.4 3.6763  52  57100  54  97454  52  5332  32  320.03
3/1/18 8.4 0.9663  50  58100  63  87554  54  5432  32  320.06
3/2/18 18.0 057  41  4982  36  61354  54  5432  32  32--
3/3/18 18.5 061  36  4872  24  50254  52  5332  32  32--
3/4/18 14.1 066  37  5167  26  48252  52  5232  32  320.08
3/5/18 3.9 1.0259  46  5399  59  83352  52  5232  32  320.03
3/6/18 18.8 061  39  5285  20  44652  52  5232  32  320.12
3/7/18 5.7 045  34  3972  41  57652  52  5232  32  32--
3/8/18 18.4 045  30  3775  39  57052  50  5032  32  32--
3/9/18 17.1 066  32  4883  26  52350  48  4932  32  32--
3/10/18 11.0 0.1166  50  5989  36  63350  48  5032  32  320.08
3/11/18 2.1 0.0957  37  4997  79  89252  50  5132  32  32--
3/12/18 15.4 0.0148  34  4094  54  74652  50  5132  32  32--
3/13/18 18.9 048  30  3997  38  68450  50  5032  32  32--
3/14/18 20.1 050  30  4078  22  47350  48  5032  32  32--
3/15/18 19.5 070  39  5360  24  41448  48  4832  32  320.13
3/16/18 6.3 0.1866  50  5797  46  70350  48  5032  32  320.05
3/17/18 14.8 075  52  6598  35  74652  50  5032  32  320.11
3/18/18 12.5 0.1459  45  5094  59  75352  52  5232  32  320.07
3/19/18 9.2 0.2170  46  5499  50  88554  52  5332  32  320.06
3/20/18 2.4 054  39  4590  80  85554  54  5432  32  32--
3/21/18 16.2 050  32  4191  48  68454  52  5232  32  32--
3/22/18 20.5 061  30  4699  33  64152  50  5132  32  32--
3/23/18 8.5 066  43  5475  40  58352  50  5132  32  320.06
3/24/18 5.1 072  55  6394  50  72652  52  5232  32  320.05
3/25/18 6.7 054  43  4797  67  84454  52  5332  32  32--
3/26/18 10.3 063  43  5396  70  83454  52  5332  32  320.07
3/27/18 16.2 077  55  6484  47  69654  52  5332  32  320.12
3/28/18 4.2 1.7966  61  63100  73  91255  54  5532  32  320.04
3/29/18 6.3 0.2768  50  6099  58  88555  55  5532  32  320.05
3/30/18 15.3 059  45  5287  46  71455  55  5532  32  320.09
3/31/18 21.2 073  41  5691  26  58355  55  5532  32  320.13
4/1/18 8.9 0.0863  46  5598  45  78355  55  5532  32  320.06
4/2/18 4.8 059  41  4895  73  87355  55  5532  32  32--
4/3/18 12.3 0.2379  52  6994  49  70655  55  5532  32  320.10
4/4/18 23.0 050  36  4376  41  58655  55  5532  32  32--
4/5/18 18.0 063  32  4691  28  59355  54  5532  32  32--
4/6/18 4.1 0.3057  46  5298  47  85254  54  5432  32  320.03
4/7/18 6.5 046  30  3784  48  70654  54  5432  32  32--
4/8/18 8.5 046  30  3874  48  60354  52  5232  32  32--
4/9/18 23.2 061  36  4886  36  56352  52  5232  32  32--
4/10/18 20.5 055  39  4884  49  65452  52  5232  32  32--
4/11/18 18.1 070  34  5295  26  59252  52  5232  32  320.11
4/12/18 22.9 082  57  6954  20  38654  52  5232  32  320.21
4/13/18 15.3 079  63  7175  35  57955  54  5432  32  320.13
4/14/18 5.3 1.9673  52  62100  57  85857  55  5732  32  320.05
4/15/18 6.3 052  39  4375  55  65757  55  5732  32  32--
4/16/18 21.4 052  34  4272  47  54755  54  5532  32  32--
4/17/18 23.2 079  37  5990  29  57454  54  5432  32  320.15
4/18/18 18.9 079  61  6973  30  54755  54  5432  32  320.15
4/19/18 19.7 059  41  4867  40  51555  55  5532  32  32--
4/20/18 24.8 070  36  5293  23  54255  55  5532  32  320.14
4/21/18 21.9 073  45  5968  30  47455  55  5532  32  320.15
4/22/18 1.8 1.3364  55  5899  44  91357  55  5632  32  320.02
4/23/18 4.3 0.3459  55  5799  90  97057  57  5732  32  320.04
4/24/18 7.4 0.0263  54  57100  80  94057  57  5732  32  320.06
4/25/18 13.3 0.2472  52  58100  40  84157  57  5732  32  320.09
4/26/18 7.2 0.5864  52  5698  71  92257  57  5732  32  320.05
4/27/18 24.5 072  48  6098  39  70357  57  5732  32  320.17
4/28/18 25.0 072  48  6178  26  52357  57  5732  32  320.17
4/29/18 26.2 068  45  5673  23  45257  57  5732  32  320.18
4/30/18 26.2 077  39  5979  23  45457  57  5732  32  320.19
5/1/18 24.5 082  52  6974  23  46559  57  5732  32  320.20
5/2/18 19.3 084  64  7484  48  67559  59  5932  32  320.16
5/3/18 17.9 082  68  7570  42  59561  59  6132  32  320.15
5/4/18 7.1 0.3177  66  7193  60  78463  61  6232  32  320.07
5/5/18 9.1 0.3572  61  6699  77  92163  63  6332  32  320.08
5/6/18 24.6 084  55  69100  28  68263  63  6332  32  320.19
5/7/18 25.7 084  59  7286  33  55263  63  6332  32  320.20
5/8/18 24.3 084  54  7094  36  60264  63  6432  32  320.19
5/9/18 16.5 086  64  7575  33  56564  64  6432  32  320.14
5/10/18 19.6 090  68  7869  34  53464  64  6432  32  320.17
5/11/18 25.4 088  68  7870  35  51466  64  6532  32  320.21
5/12/18 22.6 086  66  7779  42  59466  66  6632  32  320.19
5/13/18 24.0 090  66  7883  36  60366  66  6632  32  320.20
5/14/18 25.0 091  68  8187  44  60368  66  6832  32  320.21
5/15/18 24.0 091  68  8094  34  63268  68  6832  32  320.20
5/16/18 16.1 086  66  7591  55  76370  68  7032  32  320.14
5/17/18 12.6 081  63  71100  63  84170  70  7032  32  320.11
5/18/18 18.5 0.0682  66  7299  60  85270  68  6932  32  320.15
5/19/18 13.2 0.5186  66  7299  55  85370  68  6932  32  320.11
5/20/18 18.6 090  64  7499  52  81370  68  6932  32  320.15
5/21/18 14.5 082  68  7496  65  81470  68  7032  32  320.12
5/22/18 15.5 0.0984  68  7599  66  86170  70  7032  32  320.13
5/23/18 22.9 090  66  78100  47  76170  70  7032  32  320.19
5/24/18 21.2 090  66  7998  43  72170  70  7032  32  320.18
5/25/18 14.9 0.0288  68  76100  52  81272  70  7032  32  320.13
5/26/18 18.2 088  68  7797  50  79372  72  7232  32  320.15
5/27/18 21.2 090  68  7999  43  73272  72  7232  32  320.18
5/28/18 14.8 0.2786  68  7599  56  85272  72  7232  32  320.13
5/29/18 10.2 0.3781  70  7498  69  89272  72  7232  32  320.09
5/30/18 24.6 090  72  8098  45  75472  72  7232  32  320.21
5/31/18 16.1 088  75  8187  57  73572  72  7232  32  320.14
6/1/18 11.9 0.9384  66  7499  70  87473  72  7232  32  320.10
6/2/18 22.8 091  68  79100  47  78172  72  7232  32  320.19
6/3/18 24.7 084  68  7889  36  64473  72  7232  32  320.21
6/4/18 26.6 084  61  7393  33  60273  72  7332  32  320.21
6/5/18 26.3 086  61  7393  35  61173  72  7232  32  320.21
6/6/18 27.1 091  61  7797  30  60172  72  7232  32  320.22
6/7/18 25.4 091  63  7999  32  62272  72  7232  32  320.21
6/8/18 24.7 093  66  8193  33  62272  72  7232  32  320.21
6/9/18 22.3 0.0391  70  8197  38  68273  72  7332  32  320.19
6/10/18 25.9 093  73  8390  41  65373  73  7332  32  320.22
6/11/18 21.8 090  72  8190  51  69473  73  7332  32  320.19
6/12/18 23.4 0.3190  70  8097  57  75573  73  7332  32  320.20
6/13/18 19.9 0.0790  70  7998  63  83475  73  7432  32  320.17
6/14/18 22.5 091  73  8297  53  78375  73  7432  32  320.19
6/15/18 23.8 093  72  8497  43  69275  75  7532  32  320.21
6/16/18 22.5 093  72  8498  43  69275  75  7532  32  320.20
6/17/18 26.3 093  75  8490  48  70375  75  7532  32  320.23
6/18/18 25.0 093  73  8393  43  66375  75  7532  32  320.22
6/19/18 23.3 088  72  8192  46  67275  75  7532  32  320.20
6/20/18 10.2 0.0982  73  7791  68  80275  75  7532  32  320.09
6/21/18 16.6 0.8886  70  7499  59  87475  75  7532  32  320.14
6/22/18 25.2 082  68  7596  54  75575  73  7532  32  320.21
6/23/18 19.1 090  70  7899  55  79375  73  7432  32  320.16
6/24/18 19.9 0.1390  70  8098  57  78375  73  7432  32  320.17
6/25/18 23.9 091  73  8293  57  73475  75  7532  32  320.21
6/26/18 25.5 0.1693  73  8588  50  70475  75  7532  32  320.22
6/27/18 24.9 0.0391  68  8197  54  75475  75  7532  32  320.21
6/28/18 25.4 095  77  8590  49  70475  75  7532  32  320.22
6/29/18 23.0 1.2788  68  7899  60  81375  75  7532  32  320.19
6/30/18 22.1 093  72  8399  56  78275  75  7532  32  320.19
7/1/18 25.9 093  72  8496  50  72375  75  7532  32  320.22
7/2/18 17.3 0.1191  77  8290  60  79277  75  7732  32  320.15
7/3/18 22.9 090  73  8197  55  78577  75  7632  32  320.20
7/4/18 22.7 0.2595  72  8299  52  80277  75  7632  32  320.20
7/5/18 26.2 0.4695  70  8299  54  78277  75  7632  32  320.23
7/6/18 12.3 0.4186  70  7599  70  92277  75  7732  32  320.11
7/7/18 22.0 086  70  7898  59  80375  75  7532  32  320.19
7/8/18 17.8 086  72  7798  63  83375  75  7532  32  320.15
7/9/18 16.2 0.1386  72  7899  65  87275  75  7532  32  320.14
7/10/18 21.9 093  70  81100  53  80175  75  7532  32  320.19
7/11/18 26.2 093  73  83100  51  77175  75  7532  32  320.23
7/12/18 26.9 093  72  8398  52  77175  75  7532  32  320.23
7/13/18 26.3 097  73  8499  48  76175  75  7532  32  320.23
7/14/18 23.2 095  77  8598  50  77277  77  7732  32  320.20
7/15/18 21.0 0.4393  70  8198  54  82477  77  7732  32  320.18
7/16/18 24.7 0.5793  73  8299  55  82277  77  7732  32  320.21
7/17/18 20.5 091  75  8298  56  83277  77  7732  32  320.18
7/18/18 19.9 090  73  8099  58  81177  77  7732  32  320.17
7/19/18 20.7 0.0191  72  8197  57  81377  77  7732  32  320.18
7/20/18 21.8 093  73  8395  55  77377  77  7732  32  320.19
7/21/18 26.2 090  77  8288  46  71477  77  7732  32  320.23
7/22/18 24.5 084  68  7796  54  73377  77  7732  32  320.20
7/23/18 17.8 082  66  7495  53  77377  75  7632  32  320.15
7/24/18 24.2 088  64  7696  49  73275  75  7532  32  320.20
7/25/18 24.4 090  68  78100  42  73175  75  7532  32  320.20
7/26/18 22.4 0.2191  64  7899  46  76175  75  7532  32  320.19
7/27/18 23.0 0.2688  70  7799  43  77275  75  7532  32  320.19
7/28/18 18.8 086  64  7599  54  78175  73  7532  32  320.16
7/29/18 22.0 088  64  7697  49  75275  73  7432  32  320.18
7/30/18 17.1 084  68  7698  64  81373  73  7332  32  320.15
7/31/18 15.7 084  66  7499  56  83273  73  7332  32  320.13
8/1/18 23.5 082  61  72100  55  80273  73  7332  32  320.19
8/2/18 26.2 088  63  75100  44  76273  73  7332  32  320.21
8/3/18 25.8 090  63  77100  43  73173  73  7332  32  320.21
8/4/18 23.6 090  66  7999  51  75273  73  7332  32  320.20
8/5/18 20.3 091  73  8189  52  73373  73  7332  32  320.18
8/6/18 24.4 093  70  8198  46  72273  73  7332  32  320.21
8/7/18 23.2 093  73  8389  43  65375  73  7432  32  320.20
8/8/18 13.9 0.8884  70  7799  62  83275  75  7532  32  320.12
8/9/18 15.9 0.5882  72  76100  70  86275  73  7532  32  320.14
8/10/18 20.5 0.0288  70  7799  60  84175  73  7432  32  320.17
8/11/18 23.2 0.0491  68  80100  51  77273  73  7332  32  320.20
8/12/18 23.7 0.0590  70  7999  52  78175  73  7432  32  320.20
8/13/18 22.8 090  66  78100  44  77175  73  7432  32  320.19
8/14/18 14.6 088  68  7799  60  83175  73  7432  32  320.13
8/15/18 20.5 0.0193  73  8292  47  70375  73  7332  32  320.18
8/16/18 9.1 2.4588  70  7798  70  87375  73  7532  32  320.09
8/17/18 17.9 086  68  7897  62  82375  75  7532  32  320.15
8/18/18 20.4 086  70  7898  60  81275  73  7532  32  320.17
8/19/18 16.0 090  70  79100  61  84175  75  7532  32  320.14
8/20/18 13.3 0.1884  72  7697  69  86475  75  7532  32  320.12
8/21/18 16.3 082  70  7597  63  81475  73  7532  32  320.14
8/22/18 19.2 082  66  7298  60  81275  73  7432  32  320.16
8/23/18 21.8 081  59  7097  45  74173  73  7332  32  320.17
8/24/18 18.3 088  63  7396  46  73373  73  7332  32  320.15
8/25/18 22.3 091  70  8090  50  70373  72  7332  32  320.19
8/26/18 20.7 091  73  8291  54  73373  73  7332  32  320.18
8/27/18 20.7 091  72  8193  51  73473  73  7332  32  320.18
8/28/18 20.7 095  73  8288  46  70373  73  7332  32  320.18
8/29/18 17.6 0.0791  72  7996  54  79375  73  7432  32  320.15
8/30/18 17.2 0.0190  70  7899  55  83275  73  7532  32  320.15
8/31/18 20.3 088  68  7798  62  80375  75  7532  32  320.17
9/1/18 21.1 088  66  7899  57  78475  75  7532  32  320.18
9/2/18 21.7 091  68  8098  51  74475  75  7532  32  320.19
9/3/18 21.4 090  70  8095  52  74475  75  7532  32  320.18
9/4/18 21.9 091  70  8094  47  72475  75  7532  32  320.19
9/5/18 16.3 086  68  7797  52  76475  75  7532  32  320.14
9/6/18 16.9 088  73  7898  59  81575  75  7532  32  320.15
9/7/18 16.8 088  70  7899  59  86375  75  7532  32  320.15
9/8/18 13.2 2.0088  72  7799  59  88377  75  7532  32  320.12
9/9/18 4.6 0.5972  64  6799  84  95375  75  7532  32  320.05
9/10/18 10.8 073  61  6694  63  81275  73  7532  32  320.09
9/11/18 11.6 075  57  66100  59  84173  73  7332  32  320.09
9/12/18 14.1 079  64  7095  61  81173  72  7332  32  320.12
9/13/18 18.3 091  64  7797  53  78273  72  7232  32  320.15
9/14/18 19.5 091  70  8099  45  74173  72  7332  32  320.17
9/15/18 19.8 091  68  8095  46  72273  73  7332  32  320.17
9/16/18 20.7 091  70  8097  45  73273  73  7332  32  320.18
9/17/18 17.5 091  66  78100  45  76173  73  7332  32  320.15
9/18/18 20.8 093  66  79100  40  72173  73  7332  32  320.18
9/19/18 20.2 095  68  8198  42  72173  73  7332  32  320.18
9/20/18 18.6 093  70  8198  41  70275  73  7532  32  320.16
9/21/18 15.1 0.3493  73  8187  45  71375  75  7532  32  320.14
9/22/18 4.1 1.6172  64  6799  91  97375  75  7532  32  320.04
9/23/18 2.7 0.8572  64  6799  98  99275  73  7432  32  320.03
9/24/18 7.1 1.6881  70  7399  79  95473  73  7332  32  320.07
9/25/18Incomplete records (33) were available today.
9/26/18Incomplete records (31) were available today.
9/27/18 5.2 0.8966  57  6298  71  85373  72  7332  32  320.05
9/28/18 18.5 077  52  64100  55  83172  72  7232  32  320.14
9/29/18 17.3 081  57  67100  50  82172  70  7132  32  320.13
9/30/18 18.7 086  57  70100  43  77172  70  7032  32  320.15
10/1/18 11.3 086  63  73100  43  82170  70  7032  32  320.10
10/2/18 13.2 0.3690  70  7799  54  83272  70  7132  32  320.12
10/3/18 16.3 088  68  7899  54  79372  72  7232  32  320.14
10/4/18 15.8 090  72  8091  48  73372  72  7232  32  320.14
10/5/18 16.5 090  72  8092  48  71373  72  7232  32  320.15
10/6/18 15.8 088  70  7891  46  72373  73  7332  32  320.14
10/7/18 17.0 090  66  7794  44  71473  73  7332  32  320.15
10/8/18 16.3 088  66  7794  48  73673  73  7332  32  320.14
10/9/18 15.8 086  70  7790  53  73873  73  7332  32  320.14
10/10/18 12.5 0.2081  68  7498  62  80573  73  7332  32  320.11
10/11/18 16.8 068  52  5990  46  70473  72  7332  32  320.11
10/12/18 10.6 063  45  5392  46  73172  70  7132  32  320.07
10/13/18 4.9 0.0357  52  5493  69  82370  70  7032  32  320.04
10/14/18 1.8 0.5070  52  6199  94  98268  68  6832  32  320.02
10/15/18 2.6 3.0464  46  56100  89  96468  66  6832  32  320.03
10/16/18 3.9 0.0450  45  4796  76  88368  66  6732  32  32--
10/17/18 16.1 0.0170  41  55100  38  74266  64  6632  32  320.10
10/18/18 15.0 064  48  5479  33  59264  64  6432  32  320.09
10/19/18 12.3 0.1972  41  5598  31  72264  64  6432  32  320.08
10/20/18 12.8 0.3066  54  5799  38  79464  64  6432  32  320.09
10/21/18 16.7 059  36  4790  31  53364  63  6432  32  32--
10/22/18 14.9 068  34  4999  31  71263  63  6332  32  32--
10/23/18 14.2 072  41  54100  36  75161  61  6132  32  320.09
10/24/18 14.6 066  41  5389  37  63261  61  6132  32  320.09
10/25/18 4.0 0.1757  48  5298  66  85461  61  6132  32  320.03
10/26/18 2.5 0.1855  50  53100  83  94561  61  6132  32  320.02
10/27/18 13.0 064  46  5496  53  80361  61  6132  32  320.08
10/28/18 14.0 075  50  6195  37  72461  61  6132  32  320.10
10/29/18 14.6 070  41  5592  26  55361  61  6132  32  320.09
10/30/18 13.5 079  52  6476  36  61561  61  6132  32  320.10
10/31/18 7.6 0.4175  63  6897  65  79661  61  6132  32  320.07
11/1/18 2.7 0.6368  45  5798  85  93663  61  6232  32  320.03
11/2/18 8.5 0.1355  41  4799  56  87363  61  6232  32  32--
11/3/18 11.6 0.0163  37  50100  48  80461  61  6132  32  32--
11/4/18 3.3 0.1457  52  5594  71  85861  61  6132  32  320.03
11/5/18 5.8 1.4266  46  57100  70  91661  59  6032  32  320.05
11/6/18 13.7 0.0370  50  58100  24  74261  59  5932  32  320.10
11/7/18 6.0 0.1761  50  5392  60  77261  59  6032  32  320.04
11/8/18 11.0 059  45  5079  40  63361  59  5932  32  32--
11/9/18 5.0 0.3650  37  4298  64  82459  59  5932  32  32--
11/10/18 13.5 041  28  3384  40  62459  57  5832  32  32--
11/11/18 10.8 052  25  3783  32  60257  55  5632  32  32--
11/12/18 1.2 0.4346  37  4399  64  86355  55  5532  32  32--
11/13/18 2.5 0.1837  28  3396  77  87055  54  5532  32  32--
11/14/18 1.5 030  27  2898  76  85354  54  5432  32  32--
11/15/18 3.5 0.0136  28  3098  78  90454  52  5332  32  32--
11/16/18 10.8 0.0159  30  4288  43  71352  52  5232  32  32--
11/17/18 12.6 068  36  4998  34  70352  52  5232  32  32--
11/18/18 9.3 063  43  5188  56  74352  52  5232  32  320.06
11/19/18 3.9 048  43  4698  73  86452  52  5232  32  32--
11/20/18 7.6 046  32  4098  66  80352  52  5232  32  32--
11/21/18 11.8 055  25  3898  44  78152  52  5232  32  32--
11/22/18 11.8 061  30  4499  38  71252  52  5232  32  32--
11/23/18 3.5 0.4254  39  4795  61  76852  52  5232  32  32--
11/24/18 10.8 066  50  5597  49  80352  52  5232  32  320.07
11/25/18 5.1 0.0363  45  5396  53  78952  52  5232  32  320.04
11/26/18 3.2 041  30  3572  59  66752  52  5232  32  32--
11/27/18 10.5 034  23  2888  54  71052  50  5232  32  32--
11/28/18 10.3 046  19  3495  45  72350  50  5032  32  32--
11/29/18 3.2 059  41  5195  60  74650  50  5032  32  320.03
11/30/18 4.8 0.4870  63  6598  77  89550  50  5032  32  320.05
12/1/18 5.2 0.6470  61  6497  39  81955  52  5332  32  320.05
12/2/18 10.5 061  46  5668  37  52554  54  5432  32  320.07
12/3/18 5.3 045  34  4088  62  72454  54  5432  32  32--
12/4/18 3.6 039  32  3780  55  67054  52  5332  32  32--
12/5/18 10.9 043  27  3382  51  67352  52  5232  32  32--
12/6/18 2.5 041  27  3588  56  75252  50  5032  32  32--
12/7/18 1.2 0.0539  37  3898  89  95050  50  5032  32  32--
12/8/18 0.9 0.7737  32  3497  94  96050  46  4932  32  32--
12/9/18 3.5 0.7834  30  3297  89  95046  45  4532  32  32--
12/10/18 8.3 039  27  3195  65  84346  45  4532  32  32--
12/11/18 10.7 050  23  3597  40  72346  46  4632  32  32--
12/12/18 2.8 052  39  4678  43  53246  46  4632  32  32--
12/13/18 3.3 0.1759  46  5294  65  80948  46  4732  32  320.03
12/14/18 1.4 0.3352  50  5099  91  96448  48  4832  32  320.02
12/15/18 2.1 0.5850  45  48100  95  98350  48  4932  32  32--
12/16/18 9.1 057  39  4795  55  81150  50  5032  32  32--
12/17/18 10.7 057  30  45100  40  77150  50  5032  32  32--
12/18/18 10.2 057  34  4396  31  69150  48  5032  32  32--
12/19/18 6.5 059  36  4780  55  69348  48  4832  32  32--
12/20/18 2.7 0.2848  43  4799  80  93450  48  4832  32  32--
12/21/18 1.4 0.0843  32  3894  74  86050  50  5032  32  32--
12/22/18 8.7 055  27  4098  38  76250  48  4932  32  32--
12/23/18 5.3 0.0146  32  4394  62  77348  48  4832  32  32--
12/24/18 10.0 050  27  3899  31  71348  48  4832  32  32--
12/25/18 9.3 0.0555  39  4496  57  74248  48  4832  32  32--
12/26/18 2.2 0.0654  43  4896  74  88648  48  4832  32  32--
12/27/18 0.9 0.6359  52  5598  68  811250  48  4932  32  320.02
12/28/18 8.4 057  37  5097  61  82550  50  5032  32  32--
12/29/18 8.3 041  28  3690  62  77150  50  5032  32  32--
12/30/18 5.5 0.1652  34  4296  52  76150  48  4932  32  32--
12/31/18 1.4 2.1068  46  56100  83  94750  48  4932  32  320.02
1/1/19 3.4 050  39  4598  75  88250  50  5032  32  32--
1/2/19 1.2 0.3343  37  4097  86  90050  48  5032  32  32--
1/3/19 3.6 0.0143  37  4097  81  90050  48  4932  32  32--
1/4/19 1.9 0.4246  39  4399  86  94050  48  4932  32  32--
1/5/19 11.0 059  37  4595  50  78148  48  4832  32  32--
1/6/19 9.7 066  41  5192  36  68348  48  4832  32  320.06
1/7/19 3.3 0.0261  50  5786  59  73650  48  4932  32  320.03
1/8/19 9.8 066  48  5893  31  68650  50  5032  32  320.07
1/9/19 11.7 048  34  4263  37  46550  50  5032  32  32--
1/10/19 11.3 039  27  3271  45  60150  48  5032  32  32--
1/11/19 3.3 0.1639  27  3291  53  70248  48  4832  32  32--
1/12/19 1.2 0.5346  36  4299  70  86448  46  4832  32  32--
1/13/19 1.2 0.0146  36  3999  86  93148  46  4732  32  32--
1/14/19 2.6 036  34  3496  82  88048  46  4732  32  32--
1/15/19 4.4 043  34  3792  65  81046  46  4632  32  32--
1/16/19 9.1 052  30  4097  58  81146  46  4632  32  32--
1/17/19 1.5 0.7050  45  4899  71  93446  46  4632  32  32--
1/18/19 4.6 0.0150  37  4599  82  93348  46  4732  32  32--
1/19/19 1.9 1.7057  28  4699  90  96648  48  4832  32  32--
1/20/19 8.1 0.0128  23  2696  66  76548  48  4832  32  32--
1/21/19 11.8 037  21  2886  50  69648  46  4732  32  32--
1/22/19 3.8 052  32  4172  49  591346  45  4632  32  32--
1/23/19 0.9 0.9854  32  4599  79  91746  45  4532  32  32--
1/24/19 12.6 041  25  3284  59  72146  46  4632  32  32--
1/25/19 12.7 036  25  2979  41  66346  45  4532  32  32--
1/26/19 12.5 050  27  3893  43  72345  45  4532  32  32--
1/27/19 12.0 054  36  4394  39  69145  45  4532  32  32--
1/28/19 7.7 0.0157  34  4590  37  65545  45  4532  32  32--
1/29/19 13.6 036  19  2765  30  50645  45  4532  32  32--
1/30/19 10.3 028  19  2475  28  46445  43  4432  32  32--
1/31/19 10.9 043  16  2965  34  50443  43  4332  32  32--
2/1/19 3.9 0.0250  39  4588  48  68343  43  4332  32  32--
2/2/19 11.5 068  39  5195  34  67243  43  4332  32  320.07
2/3/19 12.6 072  41  5694  42  70445  43  4432  32  320.09
2/4/19 3.4 0.0166  55  6098  75  87746  45  4632  32  320.03
2/5/19 3.5 0.0972  57  63100  75  94448  46  4832  32  320.04
2/6/19 2.7 4.0372  59  66100  81  93552  48  4932  32  320.03
2/7/19 2.0 0.6572  37  59100  68  87954  52  5232  32  320.03
2/8/19 12.4 036  23  2877  49  64654  52  5232  32  32--
2/9/19 13.1 039  21  3074  44  59452  48  5032  32  32--
2/10/19 1.2 1.0643  34  3999  51  87148  48  4832  32  32--
2/11/19 1.4 1.5559  43  50100  97  99348  48  4832  32  32--
2/12/19 8.6 1.1559  41  5199  48  82650  48  4832  32  320.05
2/13/19 14.5 055  32  4381  32  54350  48  4932  32  32--
2/14/19 8.0 061  45  5272  41  55848  48  4832  32  320.05
2/15/19 2.5 0.3454  34  4397  73  86248  48  4832  32  32--
2/16/19 5.8 0.0737  30  3497  77  87248  48  4832  32  32--
2/17/19 3.4 0.2445  37  4099  78  90248  48  4832  32  32--
2/18/19 13.4 039  30  3578  56  68148  46  4732  32  32--
2/19/19 2.0 0.7437  30  3398  63  80046  46  4632  32  32--
2/20/19 2.5 1.3250  39  44100  87  97246  46  4632  32  32--
2/21/19 5.0 0.2646  30  39100  80  95246  46  4632  32  32--
2/22/19 1.3 1.0752  43  46100  91  98246  46  4632  32  32--
2/23/19 1.7 3.3764  52  59100  65  97848  46  4732  32  320.02
2/24/19 17.5 063  39  4870  33  51848  48  4832  32  32--
2/25/19 15.7 054  34  4370  30  49248  48  4832  32  32--
2/26/19 16.7 064  36  4972  27  49348  48  4832  32  32--
2/27/19 10.0 068  45  5584  42  61248  48  4832  32  320.07
2/28/19 3.9 0.0157  36  4297  66  81348  48  4832  32  32--
3/1/19 3.4 037  34  3597  82  91048  48  4832  32  32--
3/2/19 2.9 043  37  4090  75  83048  48  4832  32  32--
3/3/19 2.3 0.4941  28  3598  74  88048  48  4832  32  32--
3/4/19 17.4 028  18  2476  45  60048  46  4732  32  32--
3/5/19 19.4 034  19  2782  34  52346  45  4632  32  32--
3/6/19 18.1 039  21  3068  33  50245  45  4532  32  32--
3/7/19 4.6 046  25  3677  39  58545  43  4432  32  32--
3/8/19 2.2 0.1752  41  47100  63  95245  43  4432  32  32--
3/9/19 2.8 0.6766  50  59100  76  92746  45  4532  32  320.03
3/10/19 17.4 061  45  5385  51  66448  46  4632  32  320.10
3/11/19 12.4 0.0361  45  5191  51  66348  48  4832  32  320.07
3/12/19 11.3 063  43  5275  39  59348  48  4832  32  320.07
3/13/19 8.7 0.1872  52  6384  56  651250  48  4932  32  320.07
3/14/19 15.4 2.0475  57  6899  32  671052  50  5032  32  320.12
3/15/19 14.5 055  43  4866  36  54652  52  5232  32  32--
3/16/19 21.1 055  34  4582  29  50352  52  5232  32  32--
3/17/19 20.7 061  34  4793  29  56352  50  5132  32  32--
3/18/19 20.6 055  37  4774  28  47350  50  5032  32  32--
3/19/19 20.9 059  30  4688  24  46350  50  5032  32  32--
3/20/19 13.5 0.0963  37  4996  23  55450  50  5032  32  32--
3/21/19 19.5 055  39  4799  50  77450  50  5032  32  32--
3/22/19 21.4 064  36  4997  28  62350  50  5032  32  32--
3/23/19 20.4 070  39  5478  24  49450  50  5032  32  320.12
3/24/19 14.5 0.1873  50  6091  35  54550  50  5032  32  320.10
3/25/19 6.3 0.0364  48  5690  54  80552  50  5232  32  320.05
3/26/19 22.0 055  41  4986  27  54552  52  5232  32  32--
3/27/19 22.2 064  30  4982  18  42252  52  5232  32  32--
3/28/19 19.8 075  43  5968  26  43452  52  5232  32  320.15
3/29/19 13.7 072  57  6471  41  54552  52  5232  32  320.10
3/30/19 6.6 0.3470  43  5994  56  74754  52  5332  32  320.05
3/31/19 23.0 050  36  4378  36  57554  54  5432  32  32--
4/1/19 22.0 055  30  4372  25  49354  52  5332  32  32--
4/2/19 23.0 064  36  5082  27  49352  52  5232  32  320.13
4/3/19 21.8 073  46  6062  22  39452  52  5232  32  320.17
4/4/19 2.5 0.7261  52  5598  38  74652  52  5232  32  320.03
4/5/19 10.5 0.0366  54  58100  64  87254  52  5232  32  320.08
4/6/19 20.8 0.1179  50  64100  38  73354  54  5432  32  320.15
4/7/19 4.8 1.8170  61  6499  80  92555  54  5532  32  320.05
4/8/19 7.3 0.2372  61  64100  73  91255  55  5532  32  320.06
4/9/19 23.2 079  55  67100  37  72257  55  5732  32  320.17
4/10/19 22.9 086  52  7081  26  48557  57  5732  32  320.18
4/11/19 19.1 084  66  7566  28  47857  57  5732  32  320.17
4/12/19 15.4 0.4975  50  5998  40  68359  57  5932  32  320.11
4/13/19 2.4 2.0259  54  56100  71  88359  57  5932  32  320.03
4/14/19 5.4 0.2164  41  54100  73  88757  57  5732  32  320.04
4/15/19 23.3 070  37  53100  34  69257  57  5732  32  320.14
4/16/19 22.6 077  50  6478  31  53557  57  5732  32  320.16
4/17/19 13.3 075  61  6778  52  64557  57  5732  32  320.11
4/18/19 4.3 0.4268  59  6398  78  89557  57  5732  32  320.04
4/19/19 4.5 0.6354  45  4698  86  93759  57  5932  32  32--
4/20/19 25.1 068  45  5495  21  46757  57  5732  32  320.16
4/21/19 24.6 081  46  6280  28  52257  55  5632  32  320.17
4/22/19 24.2 081  54  6782  33  54357  55  5732  32  320.18
4/23/19 14.8 079  59  6774  48  62257  57  5732  32  320.12
4/24/19 19.2 081  59  7086  43  65359  57  5832  32  320.15
4/25/19 5.6 0.1170  61  6694  59  81559  59  5932  32  320.05
4/26/19 24.8 072  54  6397  29  61559  59  5932  32  320.17
4/27/19 15.2 077  48  6391  25  57459  59  5932  32  320.11
4/28/19 24.8 073  54  6472  39  58459  59  5932  32  320.18
4/29/19 20.1 082  59  6985  44  65559  59  5932  32  320.16
4/30/19 18.0 084  64  7483  49  66661  59  6132  32  320.15
5/1/19 10.1 077  64  7190  62  72561  61  6132  32  320.09
5/2/19 17.3 0.0482  66  7491  46  67563  61  6332  32  320.14
5/3/19 10.0 0.0975  64  6998  65  85363  63  6332  32  320.09
5/4/19 6.6 0.1970  59  6598  77  93363  63  6332  32  320.06
5/5/19 17.2 075  59  6497  46  77363  63  6332  32  320.13
5/6/19 22.1 081  54  6699  38  69263  63  6332  32  320.16
5/7/19 23.8 086  57  7296  42  66363  63  6332  32  320.19
5/8/19 21.6 088  64  7688  37  62763  63  6332  32  320.18
5/9/19 8.1 0.7877  63  6898  56  86564  63  6432  32  320.07
5/10/19 6.3 0.0866  55  6097  77  91364  64  6432  32  320.05
5/11/19 4.9 0.0264  54  5995  87  92364  63  6332  32  320.04
5/12/19 13.4 066  54  5895  61  80363  63  6332  32  320.09
5/13/19 20.7 0.1468  52  5999  50  76363  63  6332  32  320.14
5/14/19 26.2 075  46  6199  39  67263  61  6232  32  320.18
5/15/19 14.0 0.1179  55  6594  65  80463  61  6232  32  320.11
5/16/19 23.6 088  61  7599  46  73363  61  6332  32  320.19
5/17/19 23.4 088  66  7885  43  63363  63  6332  32  320.20
5/18/19 25.2 0.2586  66  7785  41  62664  63  6432  32  320.21
5/19/19 15.5 0.3182  63  7298  57  82564  64  6432  32  320.13
5/20/19 26.1 086  61  7397  45  69266  64  6532  32  320.21
5/21/19 23.3 088  70  7986  49  66866  64  6632  32  320.20
5/22/19 16.2 0.0688  66  7796  56  76566  66  6632  32  320.14
5/23/19 24.1 090  72  8288  44  66468  66  6632  32  320.21
5/24/19 20.4 090  68  7989  48  67368  68  6832  32  320.18
5/25/19 24.8 091  70  8190  41  64368  68  6832  32  320.21
5/26/19 25.6 091  70  8181  27  58368  68  6832  32  320.22
5/27/19 21.5 091  72  8184  42  62368  68  6832  32  320.19
5/28/19 22.8 090  72  8187  48  67570  68  7032  32  320.20
5/29/19 19.8 0.2890  73  8082  52  69570  70  7032  32  320.17
5/30/19 14.9 0.0181  68  7494  60  77470  70  7032  32  320.13
5/31/19Incomplete records (40) were available today.
6/1/19 24.2 086  63  7597  36  66270  70  7032  32  320.20
6/2/19 23.8 088  66  7882  39  61370  70  7032  32  320.20
6/3/19 21.5 084  64  7589  33  60270  70  7032  32  320.18
6/4/19 18.1 0.0684  66  7487  55  71570  70  7032  32  320.15
6/5/19 22.6 090  72  8095  49  73470  70  7032  32  320.19
6/6/19 4.2 0.3675  70  7297  80  92470  70  7032  32  320.05
6/7/19 14.4 0.8481  70  7498  67  87370  70  7032  32  320.12
6/8/19 17.1 082  70  7593  64  83370  70  7032  32  320.14
6/9/19 14.2 0.1084  70  7597  65  85270  70  7032  32  320.12
6/10/19 26.0 081  64  7497  34  65470  70  7032  32  320.21
6/11/19 22.4 079  57  6881  35  57270  70  7032  32  320.17
6/12/19 20.2 077  57  6893  37  61270  70  7032  32  320.16
6/13/19 27.0 079  57  6795  29  65470  68  6932  32  320.20
6/14/19 25.2 081  50  6796  36  61468  68  6832  32  320.19
6/15/19 19.3 086  64  7678  53  66568  68  6832  32  320.16
6/16/19 18.8 086  73  7986  62  74568  68  6832  32  320.16
6/17/19 14.2 0.1684  70  7795  55  75470  68  7032  32  320.12
6/18/19 17.5 0.9888  68  7698  55  85370  70  7032  32  320.15
6/19/19 21.8 090  72  8097  54  75370  70  7032  32  320.19
6/20/19 21.5 0.9586  68  7696  54  78472  70  7132  32  320.18
6/21/19 19.9 0.2291  68  7897  60  82472  72  7232  32  320.17
6/22/19 18.7 0.1591  68  7794  59  79572  72  7232  32  320.16
6/23/19 18.7 0.2988  70  7794  60  78572  72  7232  32  320.16
6/24/19 22.2 0.6582  68  7498  56  80472  72  7232  32  320.18
6/25/19 23.8 088  68  7898  52  77272  72  7232  32  320.20
6/26/19 23.9 0.0890  70  7995  59  76372  72  7232  32  320.20
6/27/19 11.0 0.0277  68  7298  66  85272  72  7232  32  320.10
6/28/19 26.5 088  66  7699  52  78272  72  7232  32  320.22
6/29/19 25.1 091  68  7999  50  77272  72  7232  32  320.21
6/30/19 25.7 091  70  8197  48  75272  72  7232  32  320.22
7/1/19 24.1 091  73  8296  54  76273  72  7332  32  320.21
7/2/19 23.0 0.1790  72  8098  52  75373  73  7332  32  320.20
7/3/19 22.1 091  72  8097  52  79373  73  7332  32  320.19
7/4/19 22.5 090  75  8296  54  78373  73  7332  32  320.20
7/5/19 22.3 0.3991  72  8098  48  79373  73  7332  32  320.19
7/6/19 20.2 086  70  7899  62  83373  73  7332  32  320.17
7/7/19 19.1 091  72  8193  56  78273  73  7332  32  320.17
7/8/19 24.9 093  73  8398  48  77273  73  7332  32  320.22
7/9/19 20.4 095  73  8398  51  79275  73  7432  32  320.18
7/10/19 17.8 0.2695  73  8097  53  85275  75  7532  32  320.16
7/11/19 22.2 090  72  8099  57  81275  75  7532  32  320.19
7/12/19 24.6 090  70  8096  56  75275  75  7532  32  320.21
7/13/19 20.6 0.2791  73  8097  60  83375  75  7532  32  320.18
7/14/19 6.8 0.2379  70  7497  81  91375  75  7532  32  320.07
7/15/19 6.9 1.3377  70  7398  86  94775  73  7432  32  320.07
7/16/19 8.1 1.6381  72  7598  75  92575  73  7432  32  320.08
7/17/19 18.0 091  73  8195  66  84373  73  7332  32  320.16
7/18/19 15.1 0.3591  73  8298  62  84373  73  7332  32  320.14
7/19/19 22.5 0.0293  77  8495  59  78375  73  7532  32  320.20
7/20/19 24.5 093  75  8497  53  77375  75  7532  32  320.21
7/21/19 16.1 088  73  8097  66  85375  75  7532  32  320.14
7/22/19 9.9 0.2686  72  7798  74  90375  75  7532  32  320.09
7/23/19 25.9 079  64  7194  51  71475  75  7532  32  320.20
7/24/19 25.8 082  61  7297  39  71275  73  7432  32  320.20
7/25/19 26.1 086  57  7299  41  71173  73  7332  32  320.20
7/26/19 23.9 088  61  74100  43  76173  72  7332  32  320.19
7/27/19 23.9 090  64  78100  42  72273  72  7232  32  320.20
7/28/19 24.2 090  68  7997  45  72373  72  7332  32  320.20
7/29/19 17.5 0.8288  70  7799  56  79473  73  7332  32  320.15
7/30/19 11.8 0.0184  70  7599  70  90273  73  7332  32  320.10
7/31/19 25.2 086  68  7899  47  77173  73  7332  32  320.21
8/1/19 24.1 086  66  7698  47  77273  73  7332  32  320.20
8/2/19 24.2 086  64  7598  57  79273  73  7332  32  320.20
8/3/19 21.9 091  68  7998  51  76273  73  7332  32  320.19
8/4/19 22.1 0.2691  70  7898  54  81273  73  7332  32  320.19
8/5/19 22.6 0.0190  68  76100  55  84273  73  7332  32  320.19
8/6/19 21.8 091  70  8099  59  79373  73  7332  32  320.19
8/7/19 11.5 0.5788  70  7599  71  89473  73  7332  32  320.10
8/8/19 14.5 0.0184  66  75100  72  91273  73  7332  32  320.12
8/9/19 14.5 0.0686  73  7999  68  88273  73  7332  32  320.13
8/10/19 19.8 090  73  81100  60  83173  73  7332  32  320.17
8/11/19 21.1 091  72  81100  55  81173  73  7332  32  320.18
8/12/19 21.9 095  73  8498  57  79273  73  7332  32  320.19
8/13/19 21.1 0.0395  79  8694  59  78375  73  7532  32  320.19
8/14/19 22.9 0.8690  72  80100  51  79275  75  7532  32  320.20
8/15/19 23.7 088  70  7898  48  76275  75  7532  32  320.20
8/16/19 20.6 090  66  7798  54  76275  75  7532  32  320.17
8/17/19 22.1 093  70  8295  47  70375  73  7432  32  320.19
8/18/19 20.9 0.0493  72  8193  49  73375  73  7532  32  320.18
8/19/19 22.3 0.0995  70  8199  49  79275  75  7532  32  320.19
8/20/19 21.2 0.0295  72  8396  49  76375  75  7532  32  320.19
8/21/19 21.8 095  70  8099  52  79375  75  7532  32  320.19
8/22/19 14.9 0.3788  72  7798  64  87375  75  7532  32  320.13
8/23/19 14.6 086  70  77100  63  86275  75  7532  32  320.13
8/24/19 10.6 082  72  7595  69  86275  75  7532  32  320.10
8/25/19 13.6 0.6486  72  7799  65  87375  75  7532  32  320.12
8/26/19 12.8 0.0688  72  7799  64  87475  75  7532  32  320.11
8/27/19 17.1 0.0286  72  7798  57  83375  75  7532  32  320.15
8/28/19 22.8 084  64  75100  38  74275  73  7432  32  320.19
8/29/19 22.9 088  55  72100  34  68273  73  7332  32  320.18
8/30/19 20.8 090  61  7597  39  69273  73  7332  32  320.17
8/31/19 21.0 091  63  7698  38  72273  72  7332  32  320.18
9/1/19 21.6 091  64  7899  38  71173  72  7232  32  320.18
9/2/19 20.0 091  68  7999  48  77173  72  7232  32  320.17
9/3/19 21.7 091  66  79100  46  75173  73  7332  32  320.18
9/4/19 20.6 093  66  80100  45  76173  73  7332  32  320.18
9/5/19 21.0 084  68  7793  41  71373  73  7332  32  320.18
9/6/19 19.6 091  63  7699  50  74273  73  7332  32  320.16
9/7/19 20.3 086  70  7791  39  69273  73  7332  32  320.17
9/8/19 19.2 091  61  7599  36  71273  72  7332  32  320.16
9/9/19 19.7 097  66  8097  39  68273  72  7232  32  320.17
9/10/19 13.6 090  68  7997  49  73273  72  7332  32  320.12
9/11/19 19.1 095  70  8294  36  67373  73  7332  32  320.17
9/12/19 19.7 095  70  8395  40  67373  73  7332  32  320.17
9/13/19 16.2 095  70  8298  40  69273  73  7332  32  320.15
9/14/19 19.6 093  66  8082  37  61273  73  7332  32  320.17
9/15/19 18.2 097  66  8198  35  69273  73  7332  32  320.16
9/16/19 18.6 097  68  8298  32  67173  73  7332  32  320.16
9/17/19 19.0 097  66  8198  32  63173  73  7332  32  320.17
9/18/19 18.2 095  68  8199  38  67273  73  7332  32  320.16
9/19/19 18.0 093  64  7896  44  72573  73  7332  32  320.16
9/20/19 16.9 090  72  7989  39  66773  73  7332  32  320.15
9/21/19 19.0 090  66  7788  32  59573  73  7332  32  320.16
9/22/19 16.1 090  66  7776  39  60573  73  7332  32  320.14
9/23/19 10.5 084  72  7791  63  72473  73  7332  32  320.10
9/24/19 16.6 082  57  7191  31  58273  73  7332  32  320.13
9/25/19 7.6 1.7886  61  7198  52  78373  72  7232  32  320.07
9/26/19 7.2 0.2777  68  71100  77  93172  72  7232  32  320.07
9/27/19 17.5 093  66  7898  39  71472  72  7232  32  320.15
9/28/19 15.6 091  70  8080  38  62372  72  7232  32  320.14
9/29/19 17.0 093  70  8186  41  65472  72  7232  32  320.15
9/30/19 16.1 093  72  8191  41  68273  73  7332  32  320.14
10/1/19 16.2 095  68  8198  39  67273  73  7332  32  320.14
10/2/19 17.3 095  70  8188  32  62273  73  7332  32  320.15
10/3/19 16.5 093  68  8190  38  62373  73  7332  32  320.15
10/4/19 17.1 082  61  7177  33  58473  73  7332  32  320.14
10/5/19 16.7 090  54  7087  19  55273  72  7332  32  320.13
10/6/19 7.3 1.7084  66  7299  57  81472  72  7232  32  320.07
10/7/19 7.8 0.6570  54  6199  54  86372  72  7232  32  320.06
10/8/19 17.4 077  48  6195  44  74272  70  7032  32  320.12
10/9/19 15.7 0.0181  52  63100  49  81370  68  6932  32  320.12
10/10/19 14.5 086  61  7293  51  76868  68  6832  32  320.12
10/11/19 1.7 1.3772  48  6398  75  86570  68  6932  32  320.02
10/12/19 17.5 061  39  4898  32  71270  68  6932  32  32--
10/13/19 17.0 070  36  52100  30  69268  66  6732  32  320.10
10/14/19 15.6 072  39  57100  33  71366  64  6532  32  320.10
10/15/19 6.0 073  54  6394  79  87464  64  6432  32  320.05
10/16/19 16.4 1.0066  46  5699  46  70464  64  6432  32  320.11
10/17/19 15.9 064  39  5099  40  74264  64  6432  32  320.09
10/18/19 15.3 070  37  53100  31  72364  63  6332  32  320.09
10/19/19 15.6 073  39  57100  49  78463  63  6332  32  320.10

 
Copyright ©2012 Biosystems Engineering & Soil Science · Webmaster · Disclaimer